sensor_id;sensor_type;location;lat;lon;timestamp;temperature;humidity
64620;DHT22;51029;51.058;13.826;2022-11-20T00:01:13;-4.80;99.90
64620;DHT22;51029;51.058;13.826;2022-11-20T00:03:39;-4.80;99.90
64620;DHT22;51029;51.058;13.826;2022-11-20T00:06:08;-4.80;99.90
64620;DHT22;51029;51.058;13.826;2022-11-20T00:08:34;-4.90;99.90
64620;DHT22;51029;51.058;13.826;2022-11-20T00:11:11;-4.80;99.90
64620;DHT22;51029;51.058;13.826;2022-11-20T00:13:37;-4.90;99.90
64620;DHT22;51029;51.058;13.826;2022-11-20T00:16:05;-4.90;99.90
64620;DHT22;51029;51.058;13.826;2022-11-20T00:18:32;-4.90;99.90
64620;DHT22;51029;51.058;13.826;2022-11-20T00:21:07;-4.90;99.90
64620;DHT22;51029;51.058;13.826;2022-11-20T00:23:32;-4.90;99.90
64620;DHT22;51029;51.058;13.826;2022-11-20T00:26:06;-4.90;99.90
64620;DHT22;51029;51.058;13.826;2022-11-20T00:28:31;-4.90;99.90
64620;DHT22;51029;51.058;13.826;2022-11-20T00:31:05;-5.00;99.90
64620;DHT22;51029;51.058;13.826;2022-11-20T00:33:31;-5.00;99.90
64620;DHT22;51029;51.058;13.826;2022-11-20T00:36:01;-5.00;99.90
64620;DHT22;51029;51.058;13.826;2022-11-20T00:38:27;-5.00;99.90
64620;DHT22;51029;51.058;13.826;2022-11-20T00:40:57;-5.10;99.90
64620;DHT22;51029;51.058;13.826;2022-11-20T00:43:24;-5.10;99.90
64620;DHT22;51029;51.058;13.826;2022-11-20T00:45:50;-5.20;99.90
64620;DHT22;51029;51.058;13.826;2022-11-20T00:48:16;-5.20;99.90
64620;DHT22;51029;51.058;13.826;2022-11-20T00:50:41;-5.30;99.90
64620;DHT22;51029;51.058;13.826;2022-11-20T00:53:07;-5.30;99.90
64620;DHT22;51029;51.058;13.826;2022-11-20T00:55:33;-5.20;99.90
64620;DHT22;51029;51.058;13.826;2022-11-20T00:57:58;-5.10;99.90
64620;DHT22;51029;51.058;13.826;2022-11-20T01:00:24;-5.10;99.90
64620;DHT22;51029;51.058;13.826;2022-11-20T01:02:49;-5.20;99.90
64620;DHT22;51029;51.058;13.826;2022-11-20T01:05:15;-5.20;99.90
64620;DHT22;51029;51.058;13.826;2022-11-20T01:07:40;-5.10;99.90
64620;DHT22;51029;51.058;13.826;2022-11-20T01:10:06;-5.10;99.90
64620;DHT22;51029;51.058;13.826;2022-11-20T01:12:32;-5.10;99.90
64620;DHT22;51029;51.058;13.826;2022-11-20T01:14:57;-5.10;99.90
64620;DHT22;51029;51.058;13.826;2022-11-20T01:17:23;-5.10;99.90
64620;DHT22;51029;51.058;13.826;2022-11-20T01:19:49;-5.10;99.90
64620;DHT22;51029;51.058;13.826;2022-11-20T01:22:16;-5.10;99.90
64620;DHT22;51029;51.058;13.826;2022-11-20T01:24:42;-5.10;99.90
64620;DHT22;51029;51.058;13.826;2022-11-20T01:27:07;-5.20;99.90
64620;DHT22;51029;51.058;13.826;2022-11-20T01:29:33;-5.20;99.90
64620;DHT22;51029;51.058;13.826;2022-11-20T01:31:58;-5.20;99.90
64620;DHT22;51029;51.058;13.826;2022-11-20T01:34:24;-5.20;99.90
64620;DHT22;51029;51.058;13.826;2022-11-20T01:36:51;-5.20;99.90
64620;DHT22;51029;51.058;13.826;2022-11-20T01:39:19;-5.20;99.90
64620;DHT22;51029;51.058;13.826;2022-11-20T01:41:46;-5.20;99.90
64620;DHT22;51029;51.058;13.826;2022-11-20T01:47:15;-5.20;99.90
64620;DHT22;51029;51.058;13.826;2022-11-20T01:49:46;-5.20;99.90
64620;DHT22;51029;51.058;13.826;2022-11-20T01:52:25;-5.20;99.90
64620;DHT22;51029;51.058;13.826;2022-11-20T01:55:19;-5.20;99.90
64620;DHT22;51029;51.058;13.826;2022-11-20T01:57:44;-5.20;99.90
64620;DHT22;51029;51.058;13.826;2022-11-20T02:00:14;-5.20;99.90
64620;DHT22;51029;51.058;13.826;2022-11-20T02:03:03;-5.20;99.90
64620;DHT22;51029;51.058;13.826;2022-11-20T02:05:55;-5.20;99.90
64620;DHT22;51029;51.058;13.826;2022-11-20T02:08:23;-5.30;99.90
64620;DHT22;51029;51.058;13.826;2022-11-20T02:10:49;-5.30;99.90
64620;DHT22;51029;51.058;13.826;2022-11-20T02:13:15;-5.30;99.90
64620;DHT22;51029;51.058;13.826;2022-11-20T02:16:00;-5.30;99.90
64620;DHT22;51029;51.058;13.826;2022-11-20T02:18:26;-5.40;99.90
64620;DHT22;51029;51.058;13.826;2022-11-20T02:20:58;-5.50;99.90
64620;DHT22;51029;51.058;13.826;2022-11-20T02:23:32;-5.50;99.90
64620;DHT22;51029;51.058;13.826;2022-11-20T02:26:04;-5.40;99.90
64620;DHT22;51029;51.058;13.826;2022-11-20T02:28:31;-5.50;99.90
64620;DHT22;51029;51.058;13.826;2022-11-20T02:30:56;-5.40;99.90
64620;DHT22;51029;51.058;13.826;2022-11-20T02:33:22;-5.50;99.90
64620;DHT22;51029;51.058;13.826;2022-11-20T02:35:47;-5.50;99.90
64620;DHT22;51029;51.058;13.826;2022-11-20T02:38:14;-5.50;99.90
64620;DHT22;51029;51.058;13.826;2022-11-20T02:40:40;-5.50;99.90
64620;DHT22;51029;51.058;13.826;2022-11-20T02:43:06;-5.50;99.90
64620;DHT22;51029;51.058;13.826;2022-11-20T02:45:32;-5.50;99.90
64620;DHT22;51029;51.058;13.826;2022-11-20T02:47:58;-5.50;99.90
64620;DHT22;51029;51.058;13.826;2022-11-20T02:50:23;-5.50;99.90
64620;DHT22;51029;51.058;13.826;2022-11-20T02:52:49;-5.50;99.90
64620;DHT22;51029;51.058;13.826;2022-11-20T02:55:14;-5.50;99.90
64620;DHT22;51029;51.058;13.826;2022-11-20T02:57:40;-5.60;99.90
64620;DHT22;51029;51.058;13.826;2022-11-20T03:00:06;-5.60;99.90
64620;DHT22;51029;51.058;13.826;2022-11-20T03:02:32;-5.60;99.90
64620;DHT22;51029;51.058;13.826;2022-11-20T03:04:58;-5.60;99.90
64620;DHT22;51029;51.058;13.826;2022-11-20T03:07:23;-5.70;99.90
64620;DHT22;51029;51.058;13.826;2022-11-20T03:09:49;-5.70;99.90
64620;DHT22;51029;51.058;13.826;2022-11-20T03:12:15;-5.60;99.90
64620;DHT22;51029;51.058;13.826;2022-11-20T03:14:40;-5.60;99.90
64620;DHT22;51029;51.058;13.826;2022-11-20T03:17:06;-5.60;99.90
64620;DHT22;51029;51.058;13.826;2022-11-20T03:19:31;-5.60;99.90
64620;DHT22;51029;51.058;13.826;2022-11-20T03:21:57;-5.60;99.90
64620;DHT22;51029;51.058;13.826;2022-11-20T03:24:22;-5.70;99.90
64620;DHT22;51029;51.058;13.826;2022-11-20T03:26:48;-5.70;99.90
64620;DHT22;51029;51.058;13.826;2022-11-20T03:29:14;-5.70;99.90
64620;DHT22;51029;51.058;13.826;2022-11-20T03:31:40;-5.80;99.90
64620;DHT22;51029;51.058;13.826;2022-11-20T03:34:07;-5.70;99.90
64620;DHT22;51029;51.058;13.826;2022-11-20T03:36:33;-5.80;99.90
64620;DHT22;51029;51.058;13.826;2022-11-20T03:38:59;-5.70;99.90
64620;DHT22;51029;51.058;13.826;2022-11-20T03:41:28;-5.70;99.90
64620;DHT22;51029;51.058;13.826;2022-11-20T03:44:04;-5.70;99.90
64620;DHT22;51029;51.058;13.826;2022-11-20T03:46:30;-5.70;99.90
64620;DHT22;51029;51.058;13.826;2022-11-20T03:48:56;-5.70;99.90
64620;DHT22;51029;51.058;13.826;2022-11-20T03:51:27;-5.70;99.90
64620;DHT22;51029;51.058;13.826;2022-11-20T03:53:55;-5.70;99.90
64620;DHT22;51029;51.058;13.826;2022-11-20T03:56:24;-5.80;99.90
64620;DHT22;51029;51.058;13.826;2022-11-20T03:58:50;-5.70;99.90
64620;DHT22;51029;51.058;13.826;2022-11-20T04:01:23;-5.70;99.90
64620;DHT22;51029;51.058;13.826;2022-11-20T04:03:51;-5.80;99.90
64620;DHT22;51029;51.058;13.826;2022-11-20T04:06:19;-5.80;99.90
64620;DHT22;51029;51.058;13.826;2022-11-20T04:08:46;-5.80;99.90
64620;DHT22;51029;51.058;13.826;2022-11-20T04:11:20;-5.80;99.90
64620;DHT22;51029;51.058;13.826;2022-11-20T04:13:48;-5.80;99.90
64620;DHT22;51029;51.058;13.826;2022-11-20T04:16:15;-5.80;99.90
64620;DHT22;51029;51.058;13.826;2022-11-20T04:18:41;-5.80;99.90
64620;DHT22;51029;51.058;13.826;2022-11-20T04:21:06;-5.70;99.90
64620;DHT22;51029;51.058;13.826;2022-11-20T04:23:33;-5.80;99.90
64620;DHT22;51029;51.058;13.826;2022-11-20T04:26:10;-5.80;99.90
64620;DHT22;51029;51.058;13.826;2022-11-20T04:28:36;-5.90;99.90
64620;DHT22;51029;51.058;13.826;2022-11-20T04:31:26;-5.90;99.90
64620;DHT22;51029;51.058;13.826;2022-11-20T04:33:52;-5.80;99.90
64620;DHT22;51029;51.058;13.826;2022-11-20T04:36:24;-5.90;99.90
64620;DHT22;51029;51.058;13.826;2022-11-20T04:38:51;-5.90;99.90
64620;DHT22;51029;51.058;13.826;2022-11-20T04:41:20;-5.90;99.90
64620;DHT22;51029;51.058;13.826;2022-11-20T04:43:47;-5.90;99.90
64620;DHT22;51029;51.058;13.826;2022-11-20T04:46:20;-6.00;99.90
64620;DHT22;51029;51.058;13.826;2022-11-20T04:48:46;-5.90;99.90
64620;DHT22;51029;51.058;13.826;2022-11-20T04:51:12;-6.00;99.90
64620;DHT22;51029;51.058;13.826;2022-11-20T04:53:38;-6.00;99.90
64620;DHT22;51029;51.058;13.826;2022-11-20T04:56:06;-6.00;99.90
64620;DHT22;51029;51.058;13.826;2022-11-20T04:58:33;-6.00;99.90
64620;DHT22;51029;51.058;13.826;2022-11-20T05:01:13;-6.10;99.90
64620;DHT22;51029;51.058;13.826;2022-11-20T05:03:40;-6.00;99.90
64620;DHT22;51029;51.058;13.826;2022-11-20T05:06:06;-5.90;99.90
64620;DHT22;51029;51.058;13.826;2022-11-20T05:08:33;-6.00;99.90
64620;DHT22;51029;51.058;13.826;2022-11-20T05:11:04;-6.00;99.90
64620;DHT22;51029;51.058;13.826;2022-11-20T05:13:30;-6.00;99.90
64620;DHT22;51029;51.058;13.826;2022-11-20T05:16:00;-6.10;99.90
64620;DHT22;51029;51.058;13.826;2022-11-20T05:18:25;-6.10;99.90
64620;DHT22;51029;51.058;13.826;2022-11-20T05:20:55;-6.00;99.90
64620;DHT22;51029;51.058;13.826;2022-11-20T05:23:21;-6.10;99.90
64620;DHT22;51029;51.058;13.826;2022-11-20T05:25:47;-6.10;99.90
64620;DHT22;51029;51.058;13.826;2022-11-20T05:28:12;-6.10;99.90
64620;DHT22;51029;51.058;13.826;2022-11-20T05:30:38;-6.00;99.90
64620;DHT22;51029;51.058;13.826;2022-11-20T05:33:03;-6.00;99.90
64620;DHT22;51029;51.058;13.826;2022-11-20T05:35:29;-6.00;99.90
64620;DHT22;51029;51.058;13.826;2022-11-20T05:37:55;-6.10;99.90
64620;DHT22;51029;51.058;13.826;2022-11-20T05:40:20;-6.10;99.90
64620;DHT22;51029;51.058;13.826;2022-11-20T05:42:46;-6.10;99.90
64620;DHT22;51029;51.058;13.826;2022-11-20T05:45:11;-6.00;99.90
64620;DHT22;51029;51.058;13.826;2022-11-20T05:47:37;-6.00;99.90
64620;DHT22;51029;51.058;13.826;2022-11-20T05:50:02;-5.90;99.90
64620;DHT22;51029;51.058;13.826;2022-11-20T05:52:29;-5.90;99.90
64620;DHT22;51029;51.058;13.826;2022-11-20T05:54:55;-6.00;99.90
64620;DHT22;51029;51.058;13.826;2022-11-20T05:57:20;-6.00;99.90
64620;DHT22;51029;51.058;13.826;2022-11-20T05:59:46;-5.90;99.90
64620;DHT22;51029;51.058;13.826;2022-11-20T06:02:11;-5.90;99.90
64620;DHT22;51029;51.058;13.826;2022-11-20T06:04:37;-5.90;99.90
64620;DHT22;51029;51.058;13.826;2022-11-20T06:07:04;-5.90;99.90
64620;DHT22;51029;51.058;13.826;2022-11-20T06:09:30;-5.90;99.90
64620;DHT22;51029;51.058;13.826;2022-11-20T06:11:56;-6.10;99.90
64620;DHT22;51029;51.058;13.826;2022-11-20T06:14:21;-6.20;99.90
64620;DHT22;51029;51.058;13.826;2022-11-20T06:16:47;-6.20;99.90
64620;DHT22;51029;51.058;13.826;2022-11-20T06:19:12;-6.30;99.90
64620;DHT22;51029;51.058;13.826;2022-11-20T06:21:38;-6.20;99.90
64620;DHT22;51029;51.058;13.826;2022-11-20T06:24:04;-6.10;99.90
64620;DHT22;51029;51.058;13.826;2022-11-20T06:26:30;-6.00;99.90
64620;DHT22;51029;51.058;13.826;2022-11-20T06:28:55;-5.90;99.90
64620;DHT22;51029;51.058;13.826;2022-11-20T06:31:23;-5.90;99.90
64620;DHT22;51029;51.058;13.826;2022-11-20T06:33:50;-5.80;99.90
64620;DHT22;51029;51.058;13.826;2022-11-20T06:36:17;-5.90;99.90
64620;DHT22;51029;51.058;13.826;2022-11-20T06:38:43;-5.90;99.90
64620;DHT22;51029;51.058;13.826;2022-11-20T06:41:14;-5.90;99.90
64620;DHT22;51029;51.058;13.826;2022-11-20T06:43:40;-6.00;99.90
64620;DHT22;51029;51.058;13.826;2022-11-20T06:46:06;-6.00;99.90
64620;DHT22;51029;51.058;13.826;2022-11-20T06:48:32;-5.90;99.90
64620;DHT22;51029;51.058;13.826;2022-11-20T06:50:58;-5.90;99.90
64620;DHT22;51029;51.058;13.826;2022-11-20T06:53:24;-5.80;99.90
64620;DHT22;51029;51.058;13.826;2022-11-20T06:55:50;-5.80;99.90
64620;DHT22;51029;51.058;13.826;2022-11-20T06:58:17;-5.70;99.90
64620;DHT22;51029;51.058;13.826;2022-11-20T07:00:43;-5.60;99.90
64620;DHT22;51029;51.058;13.826;2022-11-20T07:03:10;-5.50;99.90
64620;DHT22;51029;51.058;13.826;2022-11-20T07:05:36;-5.50;99.90
64620;DHT22;51029;51.058;13.826;2022-11-20T07:08:03;-5.50;99.90
64620;DHT22;51029;51.058;13.826;2022-11-20T07:10:28;-5.50;99.90
64620;DHT22;51029;51.058;13.826;2022-11-20T07:12:54;-5.40;99.90
64620;DHT22;51029;51.058;13.826;2022-11-20T07:15:22;-5.30;99.90
64620;DHT22;51029;51.058;13.826;2022-11-20T07:17:48;-5.30;99.90
64620;DHT22;51029;51.058;13.826;2022-11-20T07:20:14;-5.20;99.90
64620;DHT22;51029;51.058;13.826;2022-11-20T07:22:40;-5.20;99.90
64620;DHT22;51029;51.058;13.826;2022-11-20T07:25:06;-5.10;99.90
64620;DHT22;51029;51.058;13.826;2022-11-20T07:27:32;-5.10;99.90
64620;DHT22;51029;51.058;13.826;2022-11-20T07:29:58;-5.10;99.90
64620;DHT22;51029;51.058;13.826;2022-11-20T07:32:23;-5.10;99.90
64620;DHT22;51029;51.058;13.826;2022-11-20T07:34:49;-5.20;99.90
64620;DHT22;51029;51.058;13.826;2022-11-20T07:37:15;-5.20;99.90
64620;DHT22;51029;51.058;13.826;2022-11-20T07:39:41;-5.20;99.90
64620;DHT22;51029;51.058;13.826;2022-11-20T07:42:07;-5.20;99.90
64620;DHT22;51029;51.058;13.826;2022-11-20T07:44:33;-5.30;99.90
64620;DHT22;51029;51.058;13.826;2022-11-20T07:46:59;-5.20;99.90
64620;DHT22;51029;51.058;13.826;2022-11-20T07:49:25;-5.30;99.90
64620;DHT22;51029;51.058;13.826;2022-11-20T07:51:51;-5.20;99.90
64620;DHT22;51029;51.058;13.826;2022-11-20T07:54:19;-5.20;99.90
64620;DHT22;51029;51.058;13.826;2022-11-20T07:56:45;-5.20;99.90
64620;DHT22;51029;51.058;13.826;2022-11-20T07:59:11;-5.20;99.90
64620;DHT22;51029;51.058;13.826;2022-11-20T08:01:37;-5.10;99.90
64620;DHT22;51029;51.058;13.826;2022-11-20T08:04:03;-5.20;99.90
64620;DHT22;51029;51.058;13.826;2022-11-20T08:06:29;-5.10;99.90
64620;DHT22;51029;51.058;13.826;2022-11-20T08:08:54;-5.10;99.90
64620;DHT22;51029;51.058;13.826;2022-11-20T08:11:20;-5.00;99.90
64620;DHT22;51029;51.058;13.826;2022-11-20T08:14:04;-4.90;99.90
64620;DHT22;51029;51.058;13.826;2022-11-20T08:16:49;-4.90;99.90
64620;DHT22;51029;51.058;13.826;2022-11-20T08:19:16;-4.90;99.90
64620;DHT22;51029;51.058;13.826;2022-11-20T08:21:43;-4.80;99.90
64620;DHT22;51029;51.058;13.826;2022-11-20T08:24:09;-4.70;99.90
64620;DHT22;51029;51.058;13.826;2022-11-20T08:26:36;-4.60;99.90
64620;DHT22;51029;51.058;13.826;2022-11-20T08:29:03;-4.50;99.90
64620;DHT22;51029;51.058;13.826;2022-11-20T08:31:29;-4.30;99.90
64620;DHT22;51029;51.058;13.826;2022-11-20T08:33:56;-4.00;99.90
64620;DHT22;51029;51.058;13.826;2022-11-20T08:36:22;-3.50;99.90
64620;DHT22;51029;51.058;13.826;2022-11-20T08:38:53;-2.90;99.90
64620;DHT22;51029;51.058;13.826;2022-11-20T08:41:19;-2.20;99.90
64620;DHT22;51029;51.058;13.826;2022-11-20T08:44:00;-1.60;99.90
64620;DHT22;51029;51.058;13.826;2022-11-20T08:46:37;-1.00;99.90
64620;DHT22;51029;51.058;13.826;2022-11-20T08:49:07;-0.30;99.90
64620;DHT22;51029;51.058;13.826;2022-11-20T08:51:34;0.30;99.60
64620;DHT22;51029;51.058;13.826;2022-11-20T08:54:00;0.80;97.30
64620;DHT22;51029;51.058;13.826;2022-11-20T08:56:26;1.30;95.50
64620;DHT22;51029;51.058;13.826;2022-11-20T08:58:51;1.80;94.50
64620;DHT22;51029;51.058;13.826;2022-11-20T09:01:18;2.30;92.50
64620;DHT22;51029;51.058;13.826;2022-11-20T09:03:43;2.70;91.70
64620;DHT22;51029;51.058;13.826;2022-11-20T09:06:09;3.10;90.10
64620;DHT22;51029;51.058;13.826;2022-11-20T09:08:35;3.50;87.90
64620;DHT22;51029;51.058;13.826;2022-11-20T09:11:02;3.60;85.70
64620;DHT22;51029;51.058;13.826;2022-11-20T09:13:28;4.00;84.80
64620;DHT22;51029;51.058;13.826;2022-11-20T09:16:01;4.20;82.30
64620;DHT22;51029;51.058;13.826;2022-11-20T09:18:28;4.70;80.80
64620;DHT22;51029;51.058;13.826;2022-11-20T09:21:00;4.90;79.30
64620;DHT22;51029;51.058;13.826;2022-11-20T09:23:27;5.30;76.90
64620;DHT22;51029;51.058;13.826;2022-11-20T09:25:55;5.60;74.80
64620;DHT22;51029;51.058;13.826;2022-11-20T09:28:25;6.00;74.20
64620;DHT22;51029;51.058;13.826;2022-11-20T09:30:51;6.40;72.60
64620;DHT22;51029;51.058;13.826;2022-11-20T09:33:16;6.90;70.80
64620;DHT22;51029;51.058;13.826;2022-11-20T09:35:43;7.30;68.80
64620;DHT22;51029;51.058;13.826;2022-11-20T09:38:09;7.50;66.70
64620;DHT22;51029;51.058;13.826;2022-11-20T09:40:39;7.60;65.20
64620;DHT22;51029;51.058;13.826;2022-11-20T09:43:15;7.80;63.60
64620;DHT22;51029;51.058;13.826;2022-11-20T09:46:06;8.20;62.60
64620;DHT22;51029;51.058;13.826;2022-11-20T09:51:58;8.40;59.10
64620;DHT22;51029;51.058;13.826;2022-11-20T09:54:35;9.00;57.40
64620;DHT22;51029;51.058;13.826;2022-11-20T09:57:11;9.30;57.30
64620;DHT22;51029;51.058;13.826;2022-11-20T09:59:42;10.10;55.90
64620;DHT22;51029;51.058;13.826;2022-11-20T10:05:15;11.90;51.70
64620;DHT22;51029;51.058;13.826;2022-11-20T10:08:16;12.70;49.90
64620;DHT22;51029;51.058;13.826;2022-11-20T10:14:37;14.20;46.60
64620;DHT22;51029;51.058;13.826;2022-11-20T10:17:40;14.10;42.90
64620;DHT22;51029;51.058;13.826;2022-11-20T10:23:17;13.90;42.90
64620;DHT22;51029;51.058;13.826;2022-11-20T10:26:02;14.50;37.80
64620;DHT22;51029;51.058;13.826;2022-11-20T10:31:11;17.10;37.10
64620;DHT22;51029;51.058;13.826;2022-11-20T10:33:41;17.30;33.90
64620;DHT22;51029;51.058;13.826;2022-11-20T10:36:38;17.70;32.40
64620;DHT22;51029;51.058;13.826;2022-11-20T10:39:14;18.90;34.70
64620;DHT22;51029;51.058;13.826;2022-11-20T10:41:42;19.80;32.60
64620;DHT22;51029;51.058;13.826;2022-11-20T10:44:15;20.30;32.60
64620;DHT22;51029;51.058;13.826;2022-11-20T10:47:01;20.30;31.90
64620;DHT22;51029;51.058;13.826;2022-11-20T10:49:27;21.10;30.30
64620;DHT22;51029;51.058;13.826;2022-11-20T10:58:17;12.70;36.10
64620;DHT22;51029;51.058;13.826;2022-11-20T11:00:33;11.20;39.90
64620;DHT22;51029;51.058;13.826;2022-11-20T11:02:59;10.40;42.10
64620;DHT22;51029;51.058;13.826;2022-11-20T11:05:36;9.70;44.50
64620;DHT22;51029;51.058;13.826;2022-11-20T11:08:04;9.20;44.40
64620;DHT22;51029;51.058;13.826;2022-11-20T11:13:30;15.40;40.80
64620;DHT22;51029;51.058;13.826;2022-11-20T11:15:56;18.80;34.30
64620;DHT22;51029;51.058;13.826;2022-11-20T11:18:33;18.20;31.70
64620;DHT22;51029;51.058;13.826;2022-11-20T11:21:01;15.20;32.90
64620;DHT22;51029;51.058;13.826;2022-11-20T11:23:39;14.50;36.50
64620;DHT22;51029;51.058;13.826;2022-11-20T11:26:07;13.40;38.70
64620;DHT22;51029;51.058;13.826;2022-11-20T11:28:59;13.40;38.20
64620;DHT22;51029;51.058;13.826;2022-11-20T11:31:33;11.60;39.00
64620;DHT22;51029;51.058;13.826;2022-11-20T11:34:12;10.50;42.00
64620;DHT22;51029;51.058;13.826;2022-11-20T11:36:39;9.90;43.80
64620;DHT22;51029;51.058;13.826;2022-11-20T11:39:11;9.40;45.60
64620;DHT22;51029;51.058;13.826;2022-11-20T11:41:39;9.20;47.50
64620;DHT22;51029;51.058;13.826;2022-11-20T11:44:19;10.60;45.80
64620;DHT22;51029;51.058;13.826;2022-11-20T11:47:08;12.30;43.20
64620;DHT22;51029;51.058;13.826;2022-11-20T11:49:35;12.10;41.70
64620;DHT22;51029;51.058;13.826;2022-11-20T11:52:12;10.90;41.90
64620;DHT22;51029;51.058;13.826;2022-11-20T11:57:49;10.00;44.10
64620;DHT22;51029;51.058;13.826;2022-11-20T12:00:17;9.70;46.70
64620;DHT22;51029;51.058;13.826;2022-11-20T12:05:28;8.40;48.70
64620;DHT22;51029;51.058;13.826;2022-11-20T12:08:15;7.60;51.30
64620;DHT22;51029;51.058;13.826;2022-11-20T12:10:59;6.70;53.70
64620;DHT22;51029;51.058;13.826;2022-11-20T12:16:35;10.30;49.20
64620;DHT22;51029;51.058;13.826;2022-11-20T12:19:01;12.30;46.30
64620;DHT22;51029;51.058;13.826;2022-11-20T12:21:47;12.80;42.70
64620;DHT22;51029;51.058;13.826;2022-11-20T12:24:30;10.70;43.90
64620;DHT22;51029;51.058;13.826;2022-11-20T12:38:38;6.00;59.70
64620;DHT22;51029;51.058;13.826;2022-11-20T12:44:35;4.50;64.90
64620;DHT22;51029;51.058;13.826;2022-11-20T12:53:55;3.30;73.40
64620;DHT22;51029;51.058;13.826;2022-11-20T13:08:25;2.50;83.40
64620;DHT22;51029;51.058;13.826;2022-11-20T13:16:38;2.50;86.60
64620;DHT22;51029;51.058;13.826;2022-11-20T13:19:13;2.40;87.20
64620;DHT22;51029;51.058;13.826;2022-11-20T13:21:45;2.50;90.20
64620;DHT22;51029;51.058;13.826;2022-11-20T13:26:45;2.50;91.00
64620;DHT22;51029;51.058;13.826;2022-11-20T13:29:17;2.50;91.50
64620;DHT22;51029;51.058;13.826;2022-11-20T13:31:45;2.50;92.00
64620;DHT22;51029;51.058;13.826;2022-11-20T13:34:24;2.40;92.40
64620;DHT22;51029;51.058;13.826;2022-11-20T13:36:56;2.50;92.70
64620;DHT22;51029;51.058;13.826;2022-11-20T13:39:33;2.50;92.80
64620;DHT22;51029;51.058;13.826;2022-11-20T13:42:21;2.40;92.30
64620;DHT22;51029;51.058;13.826;2022-11-20T13:44:54;2.30;92.70
64620;DHT22;51029;51.058;13.826;2022-11-20T13:47:28;2.30;92.60
64620;DHT22;51029;51.058;13.826;2022-11-20T13:49:55;2.20;92.60
64620;DHT22;51029;51.058;13.826;2022-11-20T13:52:50;2.10;93.10
64620;DHT22;51029;51.058;13.826;2022-11-20T13:58:57;2.10;93.70
64620;DHT22;51029;51.058;13.826;2022-11-20T14:01:28;2.00;93.70
64620;DHT22;51029;51.058;13.826;2022-11-20T14:03:56;2.00;94.10
64620;DHT22;51029;51.058;13.826;2022-11-20T14:06:30;1.90;93.80
64620;DHT22;51029;51.058;13.826;2022-11-20T14:08:57;2.00;94.30
64620;DHT22;51029;51.058;13.826;2022-11-20T14:11:24;1.90;94.30
64620;DHT22;51029;51.058;13.826;2022-11-20T14:16:25;1.90;95.40
64620;DHT22;51029;51.058;13.826;2022-11-20T14:18:52;1.90;94.70
64620;DHT22;51029;51.058;13.826;2022-11-20T14:21:26;1.80;94.60
64620;DHT22;51029;51.058;13.826;2022-11-20T14:23:54;1.70;95.20
64620;DHT22;51029;51.058;13.826;2022-11-20T14:26:19;1.70;95.10
64620;DHT22;51029;51.058;13.826;2022-11-20T14:28:49;1.80;95.20
64620;DHT22;51029;51.058;13.826;2022-11-20T14:31:24;1.70;95.00
64620;DHT22;51029;51.058;13.826;2022-11-20T14:33:52;1.70;95.40
64620;DHT22;51029;51.058;13.826;2022-11-20T14:36:22;1.70;95.40
64620;DHT22;51029;51.058;13.826;2022-11-20T14:38:50;1.70;95.50
64620;DHT22;51029;51.058;13.826;2022-11-20T14:41:23;1.60;95.50
64620;DHT22;51029;51.058;13.826;2022-11-20T14:43:59;1.60;95.40
64620;DHT22;51029;51.058;13.826;2022-11-20T14:46:25;1.50;95.80
64620;DHT22;51029;51.058;13.826;2022-11-20T14:48:54;1.50;95.90
64620;DHT22;51029;51.058;13.826;2022-11-20T14:51:47;1.40;96.10
64620;DHT22;51029;51.058;13.826;2022-11-20T14:54:23;1.40;96.00
64620;DHT22;51029;51.058;13.826;2022-11-20T14:57:03;1.30;96.40
64620;DHT22;51029;51.058;13.826;2022-11-20T14:59:31;1.20;96.30
64620;DHT22;51029;51.058;13.826;2022-11-20T15:04:22;0.90;97.20
64620;DHT22;51029;51.058;13.826;2022-11-20T15:06:54;0.70;98.00
64620;DHT22;51029;51.058;13.826;2022-11-20T15:09:20;0.60;98.90
64620;DHT22;51029;51.058;13.826;2022-11-20T15:12:00;0.40;99.70
64620;DHT22;51029;51.058;13.826;2022-11-20T15:14:27;0.30;99.90
64620;DHT22;51029;51.058;13.826;2022-11-20T15:16:54;0.20;99.90
64620;DHT22;51029;51.058;13.826;2022-11-20T15:19:24;0.10;99.90
64620;DHT22;51029;51.058;13.826;2022-11-20T15:21:51;0.00;99.90
64620;DHT22;51029;51.058;13.826;2022-11-20T15:24:16;-0.20;99.90
64620;DHT22;51029;51.058;13.826;2022-11-20T15:26:42;-0.30;99.90
64620;DHT22;51029;51.058;13.826;2022-11-20T15:29:11;-0.40;99.90
64620;DHT22;51029;51.058;13.826;2022-11-20T15:31:37;-0.40;99.90
64620;DHT22;51029;51.058;13.826;2022-11-20T15:34:04;-0.50;99.90
64620;DHT22;51029;51.058;13.826;2022-11-20T15:36:30;-0.60;99.90
64620;DHT22;51029;51.058;13.826;2022-11-20T15:38:56;-0.70;99.90
64620;DHT22;51029;51.058;13.826;2022-11-20T15:41:21;-0.60;99.90
64620;DHT22;51029;51.058;13.826;2022-11-20T15:43:47;-0.50;99.90
64620;DHT22;51029;51.058;13.826;2022-11-20T15:46:25;-0.50;99.90
64620;DHT22;51029;51.058;13.826;2022-11-20T15:48:54;-0.60;99.90
64620;DHT22;51029;51.058;13.826;2022-11-20T15:51:30;-0.60;99.90
64620;DHT22;51029;51.058;13.826;2022-11-20T15:53:56;-0.70;99.90
64620;DHT22;51029;51.058;13.826;2022-11-20T15:56:22;-0.80;99.90
64620;DHT22;51029;51.058;13.826;2022-11-20T15:58:48;-0.80;99.90
64620;DHT22;51029;51.058;13.826;2022-11-20T16:01:15;-0.90;99.90
64620;DHT22;51029;51.058;13.826;2022-11-20T16:03:41;-0.90;99.90
64620;DHT22;51029;51.058;13.826;2022-11-20T16:06:07;-1.00;99.90
64620;DHT22;51029;51.058;13.826;2022-11-20T16:08:33;-1.00;99.90
64620;DHT22;51029;51.058;13.826;2022-11-20T16:10:59;-1.10;99.90
64620;DHT22;51029;51.058;13.826;2022-11-20T16:13:24;-1.20;99.90
64620;DHT22;51029;51.058;13.826;2022-11-20T16:16:41;-1.20;99.90
64620;DHT22;51029;51.058;13.826;2022-11-20T16:19:12;-1.20;99.90
64620;DHT22;51029;51.058;13.826;2022-11-20T16:21:37;-1.20;99.90
64620;DHT22;51029;51.058;13.826;2022-11-20T16:24:05;-1.20;99.90
64620;DHT22;51029;51.058;13.826;2022-11-20T16:26:32;-1.20;99.90
64620;DHT22;51029;51.058;13.826;2022-11-20T16:28:59;-1.20;99.90
64620;DHT22;51029;51.058;13.826;2022-11-20T16:31:25;-1.30;99.90
64620;DHT22;51029;51.058;13.826;2022-11-20T16:33:52;-1.30;99.90
64620;DHT22;51029;51.058;13.826;2022-11-20T16:36:20;-1.30;99.90
64620;DHT22;51029;51.058;13.826;2022-11-20T16:38:46;-1.40;99.90
64620;DHT22;51029;51.058;13.826;2022-11-20T16:41:12;-1.40;99.90
64620;DHT22;51029;51.058;13.826;2022-11-20T16:44:00;-1.40;99.90
64620;DHT22;51029;51.058;13.826;2022-11-20T16:46:30;-1.50;99.90
64620;DHT22;51029;51.058;13.826;2022-11-20T16:49:02;-1.50;99.90
64620;DHT22;51029;51.058;13.826;2022-11-20T16:51:30;-1.50;99.90
64620;DHT22;51029;51.058;13.826;2022-11-20T16:53:56;-1.50;99.90
64620;DHT22;51029;51.058;13.826;2022-11-20T16:56:26;-1.60;99.90
64620;DHT22;51029;51.058;13.826;2022-11-20T16:58:55;-1.60;99.90
64620;DHT22;51029;51.058;13.826;2022-11-20T17:01:22;-1.70;99.90